sensor_id;sensor_type;location;lat;lon;timestamp;P1;durP1;ratioP1;P2;durP2;ratioP2
40675;SDS011;26359;48.750;9.314;2022-09-17T00:00:29;3.13;;;2.80;;
40675;SDS011;26359;48.750;9.314;2022-09-17T00:02:55;5.65;;;5.10;;
40675;SDS011;26359;48.750;9.314;2022-09-17T00:05:21;2.22;;;1.95;;
40675;SDS011;26359;48.750;9.314;2022-09-17T00:07:48;3.00;;;2.80;;
40675;SDS011;26359;48.750;9.314;2022-09-17T00:10:15;3.83;;;2.63;;
40675;SDS011;26359;48.750;9.314;2022-09-17T00:12:41;3.28;;;2.97;;
40675;SDS011;26359;48.750;9.314;2022-09-17T00:15:07;5.95;;;5.55;;
40675;SDS011;26359;48.750;9.314;2022-09-17T00:17:33;2.42;;;2.20;;
40675;SDS011;26359;48.750;9.314;2022-09-17T00:19:59;3.67;;;2.65;;
40675;SDS011;26359;48.750;9.314;2022-09-17T00:22:24;1.88;;;1.77;;
40675;SDS011;26359;48.750;9.314;2022-09-17T00:24:50;2.83;;;2.63;;
40675;SDS011;26359;48.750;9.314;2022-09-17T00:27:15;2.10;;;1.95;;
40675;SDS011;26359;48.750;9.314;2022-09-17T00:29:41;2.22;;;2.10;;
40675;SDS011;26359;48.750;9.314;2022-09-17T00:32:06;3.25;;;3.08;;
40675;SDS011;26359;48.750;9.314;2022-09-17T00:34:32;4.38;;;2.17;;
40675;SDS011;26359;48.750;9.314;2022-09-17T00:36:58;3.70;;;3.40;;
40675;SDS011;26359;48.750;9.314;2022-09-17T00:39:23;3.60;;;3.38;;
40675;SDS011;26359;48.750;9.314;2022-09-17T00:41:49;3.08;;;2.88;;
40675;SDS011;26359;48.750;9.314;2022-09-17T00:47:21;2.80;;;2.60;;
40675;SDS011;26359;48.750;9.314;2022-09-17T00:49:52;3.13;;;2.28;;
40675;SDS011;26359;48.750;9.314;2022-09-17T00:52:28;3.85;;;2.33;;
40675;SDS011;26359;48.750;9.314;2022-09-17T00:55:02;4.13;;;3.40;;
40675;SDS011;26359;48.750;9.314;2022-09-17T00:57:44;5.30;;;3.95;;
40675;SDS011;26359;48.750;9.314;2022-09-17T01:00:11;4.30;;;2.58;;
40675;SDS011;26359;48.750;9.314;2022-09-17T01:02:40;2.85;;;2.58;;
40675;SDS011;26359;48.750;9.314;2022-09-17T01:05:07;2.63;;;2.42;;
40675;SDS011;26359;48.750;9.314;2022-09-17T01:13:13;4.82;;;4.53;;
40675;SDS011;26359;48.750;9.314;2022-09-17T01:15:58;4.40;;;3.78;;
40675;SDS011;26359;48.750;9.314;2022-09-17T01:18:37;4.55;;;3.72;;
40675;SDS011;26359;48.750;9.314;2022-09-17T01:21:19;4.90;;;3.85;;
40675;SDS011;26359;48.750;9.314;2022-09-17T01:27:05;4.57;;;4.18;;
40675;SDS011;26359;48.750;9.314;2022-09-17T01:29:44;2.92;;;2.70;;
40675;SDS011;26359;48.750;9.314;2022-09-17T01:32:25;2.92;;;2.63;;
40675;SDS011;26359;48.750;9.314;2022-09-17T01:40:45;2.10;;;2.00;;
40675;SDS011;26359;48.750;9.314;2022-09-17T01:43:18;2.78;;;2.58;;
40675;SDS011;26359;48.750;9.314;2022-09-17T01:48:29;1.60;;;1.50;;
40675;SDS011;26359;48.750;9.314;2022-09-17T01:51:03;5.57;;;2.90;;
40675;SDS011;26359;48.750;9.314;2022-09-17T01:53:38;3.13;;;2.92;;
40675;SDS011;26359;48.750;9.314;2022-09-17T01:56:09;4.60;;;2.85;;
40675;SDS011;26359;48.750;9.314;2022-09-17T01:58:41;3.10;;;1.83;;
40675;SDS011;26359;48.750;9.314;2022-09-17T02:01:12;3.22;;;1.70;;
40675;SDS011;26359;48.750;9.314;2022-09-17T02:04:01;2.20;;;2.00;;
40675;SDS011;26359;48.750;9.314;2022-09-17T02:06:36;2.00;;;1.85;;
40675;SDS011;26359;48.750;9.314;2022-09-17T02:09:07;4.60;;;2.40;;
40675;SDS011;26359;48.750;9.314;2022-09-17T02:11:40;3.87;;;2.17;;
40675;SDS011;26359;48.750;9.314;2022-09-17T02:14:14;3.92;;;3.42;;
40675;SDS011;26359;48.750;9.314;2022-09-17T02:16:49;3.42;;;2.90;;
40675;SDS011;26359;48.750;9.314;2022-09-17T02:21:50;3.00;;;2.70;;
40675;SDS011;26359;48.750;9.314;2022-09-17T02:24:39;2.58;;;2.38;;
40675;SDS011;26359;48.750;9.314;2022-09-17T02:27:17;3.80;;;3.33;;
40675;SDS011;26359;48.750;9.314;2022-09-17T02:29:52;3.42;;;3.13;;
40675;SDS011;26359;48.750;9.314;2022-09-17T02:32:17;5.15;;;4.70;;
40675;SDS011;26359;48.750;9.314;2022-09-17T02:34:43;5.65;;;4.65;;
40675;SDS011;26359;48.750;9.314;2022-09-17T02:37:09;5.65;;;3.10;;
40675;SDS011;26359;48.750;9.314;2022-09-17T02:39:35;3.90;;;2.60;;
40675;SDS011;26359;48.750;9.314;2022-09-17T02:42:14;3.53;;;2.90;;
40675;SDS011;26359;48.750;9.314;2022-09-17T02:48:01;4.18;;;3.83;;
40675;SDS011;26359;48.750;9.314;2022-09-17T02:56:39;5.03;;;4.38;;
40675;SDS011;26359;48.750;9.314;2022-09-17T02:59:30;4.97;;;3.60;;
40675;SDS011;26359;48.750;9.314;2022-09-17T03:02:22;5.00;;;4.47;;
40675;SDS011;26359;48.750;9.314;2022-09-17T03:04:52;1.98;;;1.88;;
40675;SDS011;26359;48.750;9.314;2022-09-17T03:07:19;3.55;;;1.83;;
40675;SDS011;26359;48.750;9.314;2022-09-17T03:09:46;3.80;;;2.10;;
40675;SDS011;26359;48.750;9.314;2022-09-17T03:12:13;5.25;;;2.13;;
40675;SDS011;26359;48.750;9.314;2022-09-17T03:14:39;6.03;;;2.67;;
40675;SDS011;26359;48.750;9.314;2022-09-17T03:17:04;3.85;;;3.38;;
40675;SDS011;26359;48.750;9.314;2022-09-17T03:19:30;8.32;;;3.80;;
40675;SDS011;26359;48.750;9.314;2022-09-17T03:21:56;4.55;;;2.10;;
40675;SDS011;26359;48.750;9.314;2022-09-17T03:24:21;4.60;;;2.22;;
40675;SDS011;26359;48.750;9.314;2022-09-17T03:26:47;3.65;;;3.20;;
40675;SDS011;26359;48.750;9.314;2022-09-17T03:29:13;4.40;;;3.97;;
40675;SDS011;26359;48.750;9.314;2022-09-17T03:31:39;3.10;;;2.80;;
40675;SDS011;26359;48.750;9.314;2022-09-17T03:34:04;4.35;;;3.45;;
40675;SDS011;26359;48.750;9.314;2022-09-17T03:36:30;4.32;;;2.53;;
40675;SDS011;26359;48.750;9.314;2022-09-17T03:38:56;3.42;;;3.13;;
40675;SDS011;26359;48.750;9.314;2022-09-17T03:41:22;4.80;;;2.63;;
40675;SDS011;26359;48.750;9.314;2022-09-17T03:43:48;4.72;;;3.60;;
40675;SDS011;26359;48.750;9.314;2022-09-17T03:46:14;7.68;;;3.28;;
40675;SDS011;26359;48.750;9.314;2022-09-17T03:48:39;4.93;;;2.72;;
40675;SDS011;26359;48.750;9.314;2022-09-17T03:51:05;5.65;;;2.03;;
40675;SDS011;26359;48.750;9.314;2022-09-17T03:53:31;4.55;;;2.67;;
40675;SDS011;26359;48.750;9.314;2022-09-17T03:55:58;4.47;;;3.08;;
40675;SDS011;26359;48.750;9.314;2022-09-17T03:58:24;6.22;;;4.05;;
40675;SDS011;26359;48.750;9.314;2022-09-17T04:00:50;5.60;;;2.13;;
40675;SDS011;26359;48.750;9.314;2022-09-17T04:03:17;4.40;;;1.98;;
40675;SDS011;26359;48.750;9.314;2022-09-17T04:05:43;5.30;;;2.83;;
40675;SDS011;26359;48.750;9.314;2022-09-17T04:08:08;7.38;;;3.28;;
40675;SDS011;26359;48.750;9.314;2022-09-17T04:10:34;3.30;;;2.00;;
40675;SDS011;26359;48.750;9.314;2022-09-17T04:12:59;4.97;;;2.58;;
40675;SDS011;26359;48.750;9.314;2022-09-17T04:15:25;2.83;;;2.05;;
40675;SDS011;26359;48.750;9.314;2022-09-17T04:17:53;4.95;;;2.50;;
40675;SDS011;26359;48.750;9.314;2022-09-17T04:20:19;5.30;;;1.98;;
40675;SDS011;26359;48.750;9.314;2022-09-17T04:22:45;7.28;;;2.58;;
40675;SDS011;26359;48.750;9.314;2022-09-17T04:25:10;6.85;;;2.63;;
40675;SDS011;26359;48.750;9.314;2022-09-17T04:27:36;3.53;;;2.33;;
40675;SDS011;26359;48.750;9.314;2022-09-17T04:30:02;6.43;;;3.17;;
40675;SDS011;26359;48.750;9.314;2022-09-17T04:32:27;3.90;;;2.15;;
40675;SDS011;26359;48.750;9.314;2022-09-17T04:34:53;4.97;;;3.22;;
40675;SDS011;26359;48.750;9.314;2022-09-17T04:37:19;6.97;;;3.80;;
40675;SDS011;26359;48.750;9.314;2022-09-17T04:39:45;4.55;;;2.75;;
40675;SDS011;26359;48.750;9.314;2022-09-17T04:42:11;3.13;;;2.28;;
40675;SDS011;26359;48.750;9.314;2022-09-17T04:44:36;6.35;;;2.22;;
40675;SDS011;26359;48.750;9.314;2022-09-17T04:47:02;5.07;;;2.40;;
40675;SDS011;26359;48.750;9.314;2022-09-17T04:49:27;3.60;;;2.15;;
40675;SDS011;26359;48.750;9.314;2022-09-17T04:51:54;4.22;;;2.25;;
40675;SDS011;26359;48.750;9.314;2022-09-17T04:54:20;10.27;;;2.78;;
40675;SDS011;26359;48.750;9.314;2022-09-17T04:56:46;4.88;;;2.20;;
40675;SDS011;26359;48.750;9.314;2022-09-17T04:59:12;5.25;;;2.20;;
40675;SDS011;26359;48.750;9.314;2022-09-17T05:01:37;5.47;;;2.85;;
40675;SDS011;26359;48.750;9.314;2022-09-17T05:04:03;4.20;;;2.20;;
40675;SDS011;26359;48.750;9.314;2022-09-17T05:06:28;6.22;;;2.47;;
40675;SDS011;26359;48.750;9.314;2022-09-17T05:08:54;9.23;;;3.00;;
40675;SDS011;26359;48.750;9.314;2022-09-17T05:11:19;3.30;;;2.38;;
40675;SDS011;26359;48.750;9.314;2022-09-17T05:13:45;6.38;;;2.42;;
40675;SDS011;26359;48.750;9.314;2022-09-17T05:16:11;7.70;;;2.22;;
40675;SDS011;26359;48.750;9.314;2022-09-17T05:18:36;6.55;;;2.50;;
40675;SDS011;26359;48.750;9.314;2022-09-17T05:21:02;7.03;;;2.20;;
40675;SDS011;26359;48.750;9.314;2022-09-17T05:23:27;6.47;;;3.30;;
40675;SDS011;26359;48.750;9.314;2022-09-17T05:25:56;6.63;;;3.17;;
40675;SDS011;26359;48.750;9.314;2022-09-17T05:28:25;6.85;;;2.97;;
40675;SDS011;26359;48.750;9.314;2022-09-17T05:30:51;4.18;;;2.80;;
40675;SDS011;26359;48.750;9.314;2022-09-17T05:33:17;5.70;;;3.38;;
40675;SDS011;26359;48.750;9.314;2022-09-17T05:35:44;6.18;;;2.60;;
40675;SDS011;26359;48.750;9.314;2022-09-17T05:38:10;7.13;;;3.75;;
40675;SDS011;26359;48.750;9.314;2022-09-17T05:40:35;7.32;;;2.72;;
40675;SDS011;26359;48.750;9.314;2022-09-17T05:43:04;6.53;;;2.42;;
40675;SDS011;26359;48.750;9.314;2022-09-17T05:45:31;7.07;;;4.20;;
40675;SDS011;26359;48.750;9.314;2022-09-17T05:47:58;6.30;;;3.28;;
40675;SDS011;26359;48.750;9.314;2022-09-17T05:50:25;7.20;;;4.03;;
40675;SDS011;26359;48.750;9.314;2022-09-17T05:52:52;7.65;;;3.55;;
40675;SDS011;26359;48.750;9.314;2022-09-17T05:55:18;6.90;;;3.15;;
40675;SDS011;26359;48.750;9.314;2022-09-17T05:57:46;7.10;;;3.63;;
40675;SDS011;26359;48.750;9.314;2022-09-17T06:00:12;9.73;;;4.03;;
40675;SDS011;26359;48.750;9.314;2022-09-17T06:02:38;7.47;;;3.35;;
40675;SDS011;26359;48.750;9.314;2022-09-17T06:05:03;6.90;;;3.08;;
40675;SDS011;26359;48.750;9.314;2022-09-17T06:07:29;9.73;;;2.60;;
40675;SDS011;26359;48.750;9.314;2022-09-17T06:09:55;4.60;;;3.22;;
40675;SDS011;26359;48.750;9.314;2022-09-17T06:12:21;7.63;;;2.85;;
40675;SDS011;26359;48.750;9.314;2022-09-17T06:14:46;5.90;;;2.50;;
40675;SDS011;26359;48.750;9.314;2022-09-17T06:17:12;8.73;;;4.03;;
40675;SDS011;26359;48.750;9.314;2022-09-17T06:19:38;5.82;;;4.82;;
40675;SDS011;26359;48.750;9.314;2022-09-17T06:22:03;5.78;;;4.45;;
40675;SDS011;26359;48.750;9.314;2022-09-17T06:24:29;6.85;;;3.80;;
40675;SDS011;26359;48.750;9.314;2022-09-17T06:26:58;7.47;;;3.50;;
40675;SDS011;26359;48.750;9.314;2022-09-17T06:29:24;6.78;;;2.92;;
40675;SDS011;26359;48.750;9.314;2022-09-17T06:31:49;7.57;;;3.67;;
40675;SDS011;26359;48.750;9.314;2022-09-17T06:34:16;4.47;;;3.30;;
40675;SDS011;26359;48.750;9.314;2022-09-17T06:36:42;5.30;;;3.80;;
40675;SDS011;26359;48.750;9.314;2022-09-17T06:39:08;6.60;;;3.30;;
40675;SDS011;26359;48.750;9.314;2022-09-17T06:41:35;6.20;;;4.15;;
40675;SDS011;26359;48.750;9.314;2022-09-17T06:44:01;7.82;;;4.50;;
40675;SDS011;26359;48.750;9.314;2022-09-17T06:46:27;9.55;;;4.07;;
40675;SDS011;26359;48.750;9.314;2022-09-17T06:48:53;8.23;;;3.50;;
40675;SDS011;26359;48.750;9.314;2022-09-17T06:51:19;7.72;;;3.38;;
40675;SDS011;26359;48.750;9.314;2022-09-17T06:53:46;7.28;;;3.25;;
40675;SDS011;26359;48.750;9.314;2022-09-17T06:56:12;6.38;;;3.28;;
40675;SDS011;26359;48.750;9.314;2022-09-17T06:58:38;5.40;;;2.72;;
40675;SDS011;26359;48.750;9.314;2022-09-17T07:01:08;7.45;;;3.42;;
40675;SDS011;26359;48.750;9.314;2022-09-17T07:03:37;5.10;;;3.45;;
40675;SDS011;26359;48.750;9.314;2022-09-17T07:06:03;9.05;;;4.20;;
40675;SDS011;26359;48.750;9.314;2022-09-17T07:08:33;9.85;;;4.93;;
40675;SDS011;26359;48.750;9.314;2022-09-17T07:10:59;8.70;;;3.60;;
40675;SDS011;26359;48.750;9.314;2022-09-17T07:13:25;7.72;;;3.67;;
40675;SDS011;26359;48.750;9.314;2022-09-17T07:15:51;4.97;;;2.42;;
40675;SDS011;26359;48.750;9.314;2022-09-17T07:18:18;8.20;;;3.05;;
40675;SDS011;26359;48.750;9.314;2022-09-17T07:20:43;9.05;;;3.13;;
40675;SDS011;26359;48.750;9.314;2022-09-17T07:23:16;7.15;;;3.28;;
40675;SDS011;26359;48.750;9.314;2022-09-17T07:25:42;6.47;;;2.80;;
40675;SDS011;26359;48.750;9.314;2022-09-17T07:28:07;6.63;;;3.50;;
40675;SDS011;26359;48.750;9.314;2022-09-17T07:30:33;7.78;;;3.28;;
40675;SDS011;26359;48.750;9.314;2022-09-17T07:33:00;8.88;;;4.57;;
40675;SDS011;26359;48.750;9.314;2022-09-17T07:35:26;4.82;;;2.53;;
40675;SDS011;26359;48.750;9.314;2022-09-17T07:37:52;6.18;;;3.25;;
40675;SDS011;26359;48.750;9.314;2022-09-17T07:40:17;5.13;;;2.88;;
40675;SDS011;26359;48.750;9.314;2022-09-17T07:42:43;5.20;;;2.78;;
40675;SDS011;26359;48.750;9.314;2022-09-17T07:45:09;5.10;;;2.67;;
40675;SDS011;26359;48.750;9.314;2022-09-17T07:47:41;5.15;;;2.70;;
40675;SDS011;26359;48.750;9.314;2022-09-17T07:50:08;4.47;;;2.22;;
40675;SDS011;26359;48.750;9.314;2022-09-17T07:52:34;6.00;;;2.38;;
40675;SDS011;26359;48.750;9.314;2022-09-17T07:55:00;5.30;;;2.95;;
40675;SDS011;26359;48.750;9.314;2022-09-17T07:57:26;3.67;;;3.10;;
40675;SDS011;26359;48.750;9.314;2022-09-17T07:59:51;5.20;;;2.35;;
40675;SDS011;26359;48.750;9.314;2022-09-17T08:02:17;7.03;;;3.05;;
40675;SDS011;26359;48.750;9.314;2022-09-17T08:04:42;4.78;;;2.92;;
40675;SDS011;26359;48.750;9.314;2022-09-17T08:07:10;5.72;;;2.80;;
40675;SDS011;26359;48.750;9.314;2022-09-17T08:09:43;2.80;;;2.08;;
40675;SDS011;26359;48.750;9.314;2022-09-17T08:12:08;2.25;;;1.98;;
40675;SDS011;26359;48.750;9.314;2022-09-17T08:14:33;4.28;;;2.08;;
40675;SDS011;26359;48.750;9.314;2022-09-17T08:16:59;4.82;;;2.45;;
40675;SDS011;26359;48.750;9.314;2022-09-17T08:19:25;5.15;;;2.05;;
40675;SDS011;26359;48.750;9.314;2022-09-17T08:21:50;5.40;;;2.40;;
40675;SDS011;26359;48.750;9.314;2022-09-17T08:24:16;5.28;;;2.17;;
40675;SDS011;26359;48.750;9.314;2022-09-17T08:26:41;6.20;;;3.28;;
40675;SDS011;26359;48.750;9.314;2022-09-17T08:29:07;3.55;;;2.50;;
40675;SDS011;26359;48.750;9.314;2022-09-17T08:31:33;5.80;;;3.03;;
40675;SDS011;26359;48.750;9.314;2022-09-17T08:33:58;6.07;;;3.20;;
40675;SDS011;26359;48.750;9.314;2022-09-17T08:36:24;4.70;;;2.53;;
40675;SDS011;26359;48.750;9.314;2022-09-17T08:38:53;5.30;;;2.47;;
40675;SDS011;26359;48.750;9.314;2022-09-17T08:41:22;4.90;;;3.25;;
40675;SDS011;26359;48.750;9.314;2022-09-17T08:46:32;8.80;;;3.53;;
40675;SDS011;26359;48.750;9.314;2022-09-17T08:49:27;8.65;;;2.75;;
40675;SDS011;26359;48.750;9.314;2022-09-17T08:57:52;8.57;;;4.20;;
40675;SDS011;26359;48.750;9.314;2022-09-17T09:00:21;7.18;;;5.07;;
40675;SDS011;26359;48.750;9.314;2022-09-17T09:03:12;9.80;;;3.97;;
40675;SDS011;26359;48.750;9.314;2022-09-17T09:06:01;8.35;;;3.40;;
40675;SDS011;26359;48.750;9.314;2022-09-17T09:08:34;8.05;;;3.20;;
40675;SDS011;26359;48.750;9.314;2022-09-17T09:11:40;10.13;;;4.35;;
40675;SDS011;26359;48.750;9.314;2022-09-17T09:14:11;8.63;;;4.43;;
40675;SDS011;26359;48.750;9.314;2022-09-17T09:16:48;7.80;;;3.03;;
40675;SDS011;26359;48.750;9.314;2022-09-17T09:19:24;7.47;;;3.78;;
40675;SDS011;26359;48.750;9.314;2022-09-17T09:24:44;8.73;;;5.22;;
40675;SDS011;26359;48.750;9.314;2022-09-17T09:27:27;12.32;;;5.47;;
40675;SDS011;26359;48.750;9.314;2022-09-17T09:30:04;13.77;;;7.35;;
40675;SDS011;26359;48.750;9.314;2022-09-17T09:35:38;13.02;;;11.68;;
40675;SDS011;26359;48.750;9.314;2022-09-17T09:44:04;15.00;;;5.47;;
40675;SDS011;26359;48.750;9.314;2022-09-17T09:57:48;10.57;;;4.10;;
40675;SDS011;26359;48.750;9.314;2022-09-17T10:03:00;11.23;;;3.22;;
40675;SDS011;26359;48.750;9.314;2022-09-17T10:05:34;9.98;;;3.72;;
40675;SDS011;26359;48.750;9.314;2022-09-17T10:08:09;7.03;;;3.13;;
40675;SDS011;26359;48.750;9.314;2022-09-17T10:10:58;9.82;;;3.72;;
40675;SDS011;26359;48.750;9.314;2022-09-17T10:13:26;8.18;;;4.03;;
40675;SDS011;26359;48.750;9.314;2022-09-17T10:15:53;10.93;;;4.10;;
40675;SDS011;26359;48.750;9.314;2022-09-17T10:18:20;8.82;;;4.30;;
40675;SDS011;26359;48.750;9.314;2022-09-17T10:23:20;9.85;;;4.53;;
40675;SDS011;26359;48.750;9.314;2022-09-17T10:25:46;5.25;;;4.57;;
40675;SDS011;26359;48.750;9.314;2022-09-17T10:28:56;9.02;;;5.50;;
40675;SDS011;26359;48.750;9.314;2022-09-17T10:31:11;11.68;;;6.40;;
40675;SDS011;26359;48.750;9.314;2022-09-17T10:39:28;12.07;;;6.45;;
40675;SDS011;26359;48.750;9.314;2022-09-17T10:41:56;4.80;;;3.55;;
40675;SDS011;26359;48.750;9.314;2022-09-17T10:44:23;8.32;;;4.75;;
40675;SDS011;26359;48.750;9.314;2022-09-17T10:46:53;7.18;;;5.78;;
40675;SDS011;26359;48.750;9.314;2022-09-17T10:52:05;9.45;;;7.97;;
40675;SDS011;26359;48.750;9.314;2022-09-17T11:00:18;6.05;;;4.07;;
40675;SDS011;26359;48.750;9.314;2022-09-17T11:16:33;6.20;;;3.83;;
40675;SDS011;26359;48.750;9.314;2022-09-17T11:22:01;5.05;;;3.83;;
40675;SDS011;26359;48.750;9.314;2022-09-17T11:24:49;7.32;;;4.88;;
40675;SDS011;26359;48.750;9.314;2022-09-17T11:27:37;9.43;;;3.63;;
40675;SDS011;26359;48.750;9.314;2022-09-17T11:30:25;6.32;;;4.53;;
40675;SDS011;26359;48.750;9.314;2022-09-17T11:35:48;11.45;;;9.20;;
40675;SDS011;26359;48.750;9.314;2022-09-17T11:38:28;12.65;;;11.57;;
40675;SDS011;26359;48.750;9.314;2022-09-17T11:43:36;14.98;;;13.68;;
40675;SDS011;26359;48.750;9.314;2022-09-17T11:46:12;12.43;;;11.20;;
40675;SDS011;26359;48.750;9.314;2022-09-17T11:48:46;6.25;;;5.57;;
40675;SDS011;26359;48.750;9.314;2022-09-17T11:51:33;9.45;;;8.65;;
40675;SDS011;26359;48.750;9.314;2022-09-17T11:56:57;6.53;;;5.88;;
40675;SDS011;26359;48.750;9.314;2022-09-17T11:59:48;9.73;;;8.82;;
40675;SDS011;26359;48.750;9.314;2022-09-17T12:02:20;6.90;;;5.18;;
40675;SDS011;26359;48.750;9.314;2022-09-17T12:05:06;5.70;;;4.88;;
40675;SDS011;26359;48.750;9.314;2022-09-17T12:15:43;5.38;;;4.68;;
40675;SDS011;26359;48.750;9.314;2022-09-17T12:18:17;6.70;;;5.75;;
40675;SDS011;26359;48.750;9.314;2022-09-17T12:20:59;5.45;;;4.97;;
40675;SDS011;26359;48.750;9.314;2022-09-17T12:23:36;6.50;;;5.30;;
40675;SDS011;26359;48.750;9.314;2022-09-17T12:26:07;6.65;;;4.85;;
40675;SDS011;26359;48.750;9.314;2022-09-17T12:28:56;5.20;;;3.50;;
40675;SDS011;26359;48.750;9.314;2022-09-17T12:31:44;6.60;;;4.65;;
40675;SDS011;26359;48.750;9.314;2022-09-17T12:34:27;9.93;;;8.48;;
40675;SDS011;26359;48.750;9.314;2022-09-17T12:37:19;7.10;;;4.65;;
40675;SDS011;26359;48.750;9.314;2022-09-17T12:46:04;4.88;;;4.07;;
40675;SDS011;26359;48.750;9.314;2022-09-17T12:51:09;4.93;;;3.80;;
40675;SDS011;26359;48.750;9.314;2022-09-17T12:53:47;4.82;;;4.28;;
40675;SDS011;26359;48.750;9.314;2022-09-17T12:59:25;11.18;;;10.02;;
40675;SDS011;26359;48.750;9.314;2022-09-17T13:07:29;3.33;;;3.08;;
40675;SDS011;26359;48.750;9.314;2022-09-17T13:12:38;5.22;;;4.70;;
40675;SDS011;26359;48.750;9.314;2022-09-17T13:23:03;6.75;;;5.13;;
40675;SDS011;26359;48.750;9.314;2022-09-17T13:25:29;5.13;;;4.68;;
40675;SDS011;26359;48.750;9.314;2022-09-17T13:28:06;3.90;;;3.58;;
40675;SDS011;26359;48.750;9.314;2022-09-17T13:39:00;2.80;;;2.20;;
40675;SDS011;26359;48.750;9.314;2022-09-17T13:41:26;3.08;;;2.20;;
40675;SDS011;26359;48.750;9.314;2022-09-17T13:43:56;2.92;;;2.15;;
40675;SDS011;26359;48.750;9.314;2022-09-17T13:46:22;3.42;;;3.08;;
40675;SDS011;26359;48.750;9.314;2022-09-17T13:48:56;3.17;;;2.88;;
40675;SDS011;26359;48.750;9.314;2022-09-17T13:53:57;3.67;;;3.42;;
40675;SDS011;26359;48.750;9.314;2022-09-17T13:56:46;4.80;;;4.50;;
40675;SDS011;26359;48.750;9.314;2022-09-17T13:59:18;4.85;;;4.45;;
40675;SDS011;26359;48.750;9.314;2022-09-17T14:06:59;2.78;;;2.47;;
40675;SDS011;26359;48.750;9.314;2022-09-17T14:09:32;5.20;;;3.20;;
40675;SDS011;26359;48.750;9.314;2022-09-17T14:18:31;5.43;;;5.03;;
40675;SDS011;26359;48.750;9.314;2022-09-17T14:21:05;6.32;;;5.95;;
40675;SDS011;26359;48.750;9.314;2022-09-17T14:23:40;6.43;;;6.00;;
40675;SDS011;26359;48.750;9.314;2022-09-17T14:26:14;5.43;;;4.47;;
40675;SDS011;26359;48.750;9.314;2022-09-17T14:31:55;6.35;;;5.65;;
40675;SDS011;26359;48.750;9.314;2022-09-17T14:34:21;5.80;;;5.40;;
40675;SDS011;26359;48.750;9.314;2022-09-17T14:36:49;4.30;;;3.90;;
40675;SDS011;26359;48.750;9.314;2022-09-17T14:39:21;5.63;;;2.65;;
40675;SDS011;26359;48.750;9.314;2022-09-17T14:42:01;7.68;;;5.18;;
40675;SDS011;26359;48.750;9.314;2022-09-17T14:44:31;6.38;;;5.88;;
40675;SDS011;26359;48.750;9.314;2022-09-17T14:47:17;4.47;;;3.95;;
40675;SDS011;26359;48.750;9.314;2022-09-17T14:49:44;5.30;;;3.83;;
40675;SDS011;26359;48.750;9.314;2022-09-17T14:52:18;5.13;;;4.65;;
40675;SDS011;26359;48.750;9.314;2022-09-17T14:57:49;4.65;;;4.22;;
40675;SDS011;26359;48.750;9.314;2022-09-17T15:00:17;9.25;;;8.55;;
40675;SDS011;26359;48.750;9.314;2022-09-17T15:02:49;6.80;;;6.05;;
40675;SDS011;26359;48.750;9.314;2022-09-17T15:07:42;9.50;;;8.70;;
40675;SDS011;26359;48.750;9.314;2022-09-17T15:10:11;3.85;;;3.42;;
40675;SDS011;26359;48.750;9.314;2022-09-17T15:12:43;8.27;;;4.78;;
40675;SDS011;26359;48.750;9.314;2022-09-17T15:15:20;3.15;;;2.92;;
40675;SDS011;26359;48.750;9.314;2022-09-17T15:17:48;7.18;;;2.90;;
40675;SDS011;26359;48.750;9.314;2022-09-17T15:20:16;4.20;;;3.60;;
40675;SDS011;26359;48.750;9.314;2022-09-17T15:23:11;5.35;;;4.40;;
40675;SDS011;26359;48.750;9.314;2022-09-17T15:25:53;5.88;;;3.63;;
40675;SDS011;26359;48.750;9.314;2022-09-17T15:30:55;4.03;;;3.10;;
40675;SDS011;26359;48.750;9.314;2022-09-17T15:33:21;3.97;;;3.55;;
40675;SDS011;26359;48.750;9.314;2022-09-17T15:35:58;4.22;;;3.53;;
40675;SDS011;26359;48.750;9.314;2022-09-17T15:38:33;5.05;;;3.40;;
40675;SDS011;26359;48.750;9.314;2022-09-17T15:41:15;4.32;;;3.67;;
40675;SDS011;26359;48.750;9.314;2022-09-17T15:44:04;9.30;;;8.60;;
40675;SDS011;26359;48.750;9.314;2022-09-17T15:46:31;8.73;;;8.02;;
40675;SDS011;26359;48.750;9.314;2022-09-17T15:48:58;4.57;;;4.15;;
40675;SDS011;26359;48.750;9.314;2022-09-17T15:51:29;4.40;;;3.00;;
40675;SDS011;26359;48.750;9.314;2022-09-17T15:54:00;6.38;;;3.72;;
40675;SDS011;26359;48.750;9.314;2022-09-17T15:56:35;4.47;;;3.83;;
40675;SDS011;26359;48.750;9.314;2022-09-17T15:59:04;5.97;;;4.40;;
40675;SDS011;26359;48.750;9.314;2022-09-17T16:04:06;6.53;;;4.18;;
40675;SDS011;26359;48.750;9.314;2022-09-17T16:09:40;8.82;;;6.28;;
40675;SDS011;26359;48.750;9.314;2022-09-17T16:12:06;7.03;;;5.90;;
40675;SDS011;26359;48.750;9.314;2022-09-17T16:14:36;6.00;;;5.32;;
40675;SDS011;26359;48.750;9.314;2022-09-17T16:17:08;5.28;;;4.78;;
40675;SDS011;26359;48.750;9.314;2022-09-17T16:19:48;5.43;;;4.90;;
40675;SDS011;26359;48.750;9.314;2022-09-17T16:22:13;5.82;;;5.07;;
40675;SDS011;26359;48.750;9.314;2022-09-17T16:24:39;6.28;;;5.45;;
40675;SDS011;26359;48.750;9.314;2022-09-17T16:27:05;6.22;;;5.45;;
40675;SDS011;26359;48.750;9.314;2022-09-17T16:29:31;5.85;;;5.35;;
40675;SDS011;26359;48.750;9.314;2022-09-17T16:31:56;5.35;;;4.85;;
40675;SDS011;26359;48.750;9.314;2022-09-17T16:34:22;11.45;;;6.65;;
40675;SDS011;26359;48.750;9.314;2022-09-17T16:36:48;8.65;;;7.05;;
40675;SDS011;26359;48.750;9.314;2022-09-17T16:39:14;5.55;;;5.05;;
40675;SDS011;26359;48.750;9.314;2022-09-17T16:41:39;5.22;;;4.68;;
40675;SDS011;26359;48.750;9.314;2022-09-17T16:44:05;5.65;;;5.03;;
40675;SDS011;26359;48.750;9.314;2022-09-17T16:46:31;7.40;;;4.22;;
40675;SDS011;26359;48.750;9.314;2022-09-17T16:48:56;4.50;;;3.83;;
40675;SDS011;26359;48.750;9.314;2022-09-17T16:51:22;7.00;;;3.67;;
40675;SDS011;26359;48.750;9.314;2022-09-17T16:53:47;6.43;;;3.50;;
40675;SDS011;26359;48.750;9.314;2022-09-17T16:56:14;4.65;;;4.25;;
40675;SDS011;26359;48.750;9.314;2022-09-17T16:58:39;4.60;;;4.00;;
40675;SDS011;26359;48.750;9.314;2022-09-17T17:01:09;6.20;;;4.00;;
40675;SDS011;26359;48.750;9.314;2022-09-17T17:03:38;8.43;;;4.47;;
40675;SDS011;26359;48.750;9.314;2022-09-17T17:06:04;6.13;;;4.68;;
40675;SDS011;26359;48.750;9.314;2022-09-17T17:08:30;6.18;;;3.97;;
40675;SDS011;26359;48.750;9.314;2022-09-17T17:10:56;7.95;;;4.35;;
40675;SDS011;26359;48.750;9.314;2022-09-17T17:13:22;6.35;;;5.70;;
40675;SDS011;26359;48.750;9.314;2022-09-17T17:15:48;8.02;;;6.18;;
40675;SDS011;26359;48.750;9.314;2022-09-17T17:18:13;7.13;;;5.18;;
40675;SDS011;26359;48.750;9.314;2022-09-17T17:20:39;5.78;;;5.03;;
40675;SDS011;26359;48.750;9.314;2022-09-17T17:23:04;6.10;;;5.60;;
40675;SDS011;26359;48.750;9.314;2022-09-17T17:25:30;5.78;;;4.65;;
40675;SDS011;26359;48.750;9.314;2022-09-17T17:27:56;5.55;;;4.07;;
40675;SDS011;26359;48.750;9.314;2022-09-17T17:30:22;4.70;;;3.42;;
40675;SDS011;26359;48.750;9.314;2022-09-17T17:32:48;4.80;;;2.85;;
40675;SDS011;26359;48.750;9.314;2022-09-17T17:35:16;4.78;;;4.28;;
40675;SDS011;26359;48.750;9.314;2022-09-17T17:37:42;5.50;;;2.95;;
40675;SDS011;26359;48.750;9.314;2022-09-17T17:40:08;4.82;;;2.97;;
40675;SDS011;26359;48.750;9.314;2022-09-17T17:42:34;5.40;;;4.53;;
40675;SDS011;26359;48.750;9.314;2022-09-17T17:45:03;7.65;;;5.38;;
40675;SDS011;26359;48.750;9.314;2022-09-17T17:47:30;6.90;;;4.20;;
40675;SDS011;26359;48.750;9.314;2022-09-17T17:49:55;4.13;;;3.50;;
40675;SDS011;26359;48.750;9.314;2022-09-17T17:52:21;4.75;;;3.00;;
40675;SDS011;26359;48.750;9.314;2022-09-17T17:54:46;10.77;;;5.03;;
40675;SDS011;26359;48.750;9.314;2022-09-17T17:57:12;3.50;;;2.22;;
40675;SDS011;26359;48.750;9.314;2022-09-17T17:59:38;7.40;;;3.17;;
40675;SDS011;26359;48.750;9.314;2022-09-17T18:02:03;3.38;;;2.50;;
40675;SDS011;26359;48.750;9.314;2022-09-17T18:04:29;3.97;;;2.78;;
40675;SDS011;26359;48.750;9.314;2022-09-17T18:06:54;7.43;;;5.22;;